Troodos Air — 5BJJ4 — position and weather

sailwx.info

Track history (hours):
 
Tides and Currents Weather Stations Pressure Air Temp Water Temp Dewpoint Dewpoint Depression Visibility Wind Speed Wind Dir Waves Ship Positions

Troodos Air

Last reported at 2017-Nov-11 22:24 UTC. Time now 2017-Nov-18 01:15 UTC.
Position N 36°02' W 011°45'.

Length 228 m; draft 7.7 m.

Type: Cargo ship. MMSI: 209783000.

Date/timePositionNaut miles runAvg speedWind from/ knotsBaromVisibWave heightAir tempDewpointWater temp
2017-Nov-11 22:24N 36°02' W 011°45'812.0
2017-Nov-11 21:46N 36°02' W 011°36'312.0
2017-Nov-11 21:30N 36°02' W 011°32'611.8
2017-Nov-11 21:00N 36°02' W 011°25'611.7
2017-Nov-11 20:30N 36°02' W 011°18'612.1
2017-Nov-11 20:00N 36°02' W 011°10'612.1
2017-Nov-11 19:28N 36°02' W 011°02'1012.1
2017-Nov-11 18:39N 36°02' W 010°50'812.1
2017-Nov-11 17:57N 36°01' W 010°39'512.2
2017-Nov-11 17:30N 36°01' W 010°33'612.0
2017-Nov-11 16:59N 36°01' W 010°25'612.2
2017-Nov-11 16:30N 36°01' W 010°18'812.4
2017-Nov-11 15:53N 36°01' W 010°08'512.1
2017-Nov-11 15:28N 36°01' W 010°02'611.9
2017-Nov-11 15:00N 36°00' W 009°55'912.0
2017-Nov-11 14:15N 36°00' W 009°44'19111.7
2017-Nov-10 21:54N 35°58' W 005°48'710.5
2017-Nov-10 21:17N 35°58' W 005°40'311.4
2017-Nov-10 21:00N 35°58' W 005°36'611.1
2017-Nov-10 20:30N 35°59' W 005°29'510.5
2017-Nov-10 20:00N 36°00' W 005°23'510.3
2017-Nov-10 19:30N 36°01' W 005°17'  
2017-Nov-07 06:38N 36°41' E 013°42'211.7
2017-Nov-07 06:30N 36°40' E 013°44'611.8
2017-Nov-07 06:00N 36°38' E 013°51'711.2
2017-Nov-07 05:21N 36°36' E 014°00'410.9
2017-Nov-07 05:00N 36°35' E 014°04'610.9
2017-Nov-07 04:30N 36°33' E 014°11'510.8
2017-Nov-07 04:00N 36°31' E 014°17'510.8
2017-Nov-07 03:30N 36°30' E 014°24'510.8
2017-Nov-07 03:00N 36°28' E 014°30'510.9
2017-Nov-07 02:30N 36°27' E 014°37'510.7
2017-Nov-07 02:00N 36°25' E 014°43'  
Track history (hours):
 
Tides and Currents Weather Stations Pressure Air Temp Water Temp Dewpoint Dewpoint Depression Visibility Wind Speed Wind Dir Waves Ship Positions

Troodos Air

Last reported at 2017-Nov-11 22:24 UTC. Time now 2017-Nov-18 01:15 UTC.
Position N 36°02' W 011°45'.

Length 228 m; draft 7.7 m.

Type: Cargo ship. MMSI: 209783000.

Date/timePositionNaut miles runAvg speedWind from/ knotsBaromVisibWave heightAir tempDewpointWater temp
2017-Nov-11 22:24N 36°02' W 011°45'812.0
2017-Nov-11 21:46N 36°02' W 011°36'312.0
2017-Nov-11 21:30N 36°02' W 011°32'611.8
2017-Nov-11 21:00N 36°02' W 011°25'611.7
2017-Nov-11 20:30N 36°02' W 011°18'612.1
2017-Nov-11 20:00N 36°02' W 011°10'612.1
2017-Nov-11 19:28N 36°02' W 011°02'1012.1
2017-Nov-11 18:39N 36°02' W 010°50'812.1
2017-Nov-11 17:57N 36°01' W 010°39'512.2
2017-Nov-11 17:30N 36°01' W 010°33'612.0
2017-Nov-11 16:59N 36°01' W 010°25'612.2
2017-Nov-11 16:30N 36°01' W 010°18'812.4
2017-Nov-11 15:53N 36°01' W 010°08'512.1
2017-Nov-11 15:28N 36°01' W 010°02'611.9
2017-Nov-11 15:00N 36°00' W 009°55'912.0
2017-Nov-11 14:15N 36°00' W 009°44'19111.7
2017-Nov-10 21:54N 35°58' W 005°48'710.5
2017-Nov-10 21:17N 35°58' W 005°40'311.4
2017-Nov-10 21:00N 35°58' W 005°36'611.1
2017-Nov-10 20:30N 35°59' W 005°29'510.5
2017-Nov-10 20:00N 36°00' W 005°23'510.3
2017-Nov-10 19:30N 36°01' W 005°17'  
2017-Nov-07 06:38N 36°41' E 013°42'211.7
2017-Nov-07 06:30N 36°40' E 013°44'611.8
2017-Nov-07 06:00N 36°38' E 013°51'711.2
2017-Nov-07 05:21N 36°36' E 014°00'410.9
2017-Nov-07 05:00N 36°35' E 014°04'610.9
2017-Nov-07 04:30N 36°33' E 014°11'510.8
2017-Nov-07 04:00N 36°31' E 014°17'510.8
2017-Nov-07 03:30N 36°30' E 014°24'510.8
2017-Nov-07 03:00N 36°28' E 014°30'510.9
2017-Nov-07 02:30N 36°27' E 014°37'510.7
2017-Nov-07 02:00N 36°25' E 014°43'  

Dump ship's entire track history